sensor_id;sensor_type;location;lat;lon;timestamp;P1;durP1;ratioP1;P2;durP2;ratioP2
43901;SDS011;29562;40.390;-3.706;2023-04-29T00:00:17;11.45;;;3.55;;
43901;SDS011;29562;40.390;-3.706;2023-04-29T00:10:19;7.50;;;3.45;;
43901;SDS011;29562;40.390;-3.706;2023-04-29T00:20:21;7.95;;;2.83;;
43901;SDS011;29562;40.390;-3.706;2023-04-29T00:30:22;4.90;;;2.55;;
43901;SDS011;29562;40.390;-3.706;2023-04-29T00:40:24;7.70;;;2.85;;
43901;SDS011;29562;40.390;-3.706;2023-04-29T00:50:28;8.48;;;3.00;;
43901;SDS011;29562;40.390;-3.706;2023-04-29T01:00:30;10.55;;;2.80;;
43901;SDS011;29562;40.390;-3.706;2023-04-29T01:20:54;8.10;;;2.80;;
43901;SDS011;29562;40.390;-3.706;2023-04-29T01:31:07;6.22;;;2.15;;
43901;SDS011;29562;40.390;-3.706;2023-04-29T01:41:15;3.00;;;1.77;;
43901;SDS011;29562;40.390;-3.706;2023-04-29T01:51:19;6.30;;;2.28;;
43901;SDS011;29562;40.390;-3.706;2023-04-29T02:01:21;5.10;;;1.90;;
43901;SDS011;29562;40.390;-3.706;2023-04-29T02:11:23;7.18;;;1.80;;
43901;SDS011;29562;40.390;-3.706;2023-04-29T02:21:25;4.93;;;2.10;;
43901;SDS011;29562;40.390;-3.706;2023-04-29T02:31:26;4.68;;;2.10;;
43901;SDS011;29562;40.390;-3.706;2023-04-29T02:41:28;3.70;;;2.33;;
43901;SDS011;29562;40.390;-3.706;2023-04-29T02:51:30;7.43;;;1.70;;
43901;SDS011;29562;40.390;-3.706;2023-04-29T03:01:32;5.10;;;2.00;;
43901;SDS011;29562;40.390;-3.706;2023-04-29T03:11:34;5.20;;;2.50;;
43901;SDS011;29562;40.390;-3.706;2023-04-29T03:21:35;7.80;;;2.85;;
43901;SDS011;29562;40.390;-3.706;2023-04-29T03:31:37;7.40;;;3.17;;
43901;SDS011;29562;40.390;-3.706;2023-04-29T03:41:39;10.55;;;3.00;;
43901;SDS011;29562;40.390;-3.706;2023-04-29T03:51:41;6.47;;;3.10;;
43901;SDS011;29562;40.390;-3.706;2023-04-29T04:01:44;7.35;;;3.08;;
43901;SDS011;29562;40.390;-3.706;2023-04-29T04:11:46;6.63;;;2.75;;
43901;SDS011;29562;40.390;-3.706;2023-04-29T04:21:48;5.70;;;2.20;;
43901;SDS011;29562;40.390;-3.706;2023-04-29T04:31:50;5.65;;;2.30;;
43901;SDS011;29562;40.390;-3.706;2023-04-29T04:41:51;5.53;;;1.55;;
43901;SDS011;29562;40.390;-3.706;2023-04-29T04:51:53;5.68;;;2.30;;
43901;SDS011;29562;40.390;-3.706;2023-04-29T05:01:55;4.57;;;2.15;;
43901;SDS011;29562;40.390;-3.706;2023-04-29T05:11:57;3.42;;;1.88;;
43901;SDS011;29562;40.390;-3.706;2023-04-29T05:21:59;9.20;;;2.67;;
43901;SDS011;29562;40.390;-3.706;2023-04-29T05:32:01;3.95;;;2.28;;
43901;SDS011;29562;40.390;-3.706;2023-04-29T05:42:03;4.55;;;1.80;;
43901;SDS011;29562;40.390;-3.706;2023-04-29T05:52:04;5.53;;;2.20;;
43901;SDS011;29562;40.390;-3.706;2023-04-29T06:02:06;5.22;;;1.52;;
43901;SDS011;29562;40.390;-3.706;2023-04-29T06:12:10;4.68;;;2.33;;
43901;SDS011;29562;40.390;-3.706;2023-04-29T06:22:12;4.07;;;1.50;;
43901;SDS011;29562;40.390;-3.706;2023-04-29T06:32:14;4.55;;;1.55;;
43901;SDS011;29562;40.390;-3.706;2023-04-29T06:42:16;3.33;;;1.45;;
43901;SDS011;29562;40.390;-3.706;2023-04-29T06:52:18;3.13;;;1.45;;
43901;SDS011;29562;40.390;-3.706;2023-04-29T07:02:20;5.25;;;1.27;;
43901;SDS011;29562;40.390;-3.706;2023-04-29T07:12:21;2.42;;;1.35;;
43901;SDS011;29562;40.390;-3.706;2023-04-29T07:22:23;4.43;;;1.23;;
43901;SDS011;29562;40.390;-3.706;2023-04-29T07:32:26;4.15;;;1.38;;
43901;SDS011;29562;40.390;-3.706;2023-04-29T07:42:27;2.83;;;1.25;;
43901;SDS011;29562;40.390;-3.706;2023-04-29T07:52:29;2.95;;;1.67;;
43901;SDS011;29562;40.390;-3.706;2023-04-29T08:02:31;5.30;;;1.60;;
43901;SDS011;29562;40.390;-3.706;2023-04-29T08:12:33;5.13;;;1.40;;
43901;SDS011;29562;40.390;-3.706;2023-04-29T08:22:35;3.08;;;1.45;;
43901;SDS011;29562;40.390;-3.706;2023-04-29T08:32:36;8.27;;;1.63;;
43901;SDS011;29562;40.390;-3.706;2023-04-29T08:42:38;4.63;;;1.48;;
43901;SDS011;29562;40.390;-3.706;2023-04-29T08:52:40;3.92;;;1.30;;
43901;SDS011;29562;40.390;-3.706;2023-04-29T09:02:44;3.67;;;1.52;;
43901;SDS011;29562;40.390;-3.706;2023-04-29T09:12:46;4.93;;;1.20;;
43901;SDS011;29562;40.390;-3.706;2023-04-29T09:33:06;3.25;;;1.80;;
43901;SDS011;29562;40.390;-3.706;2023-04-29T09:43:15;3.42;;;2.22;;
43901;SDS011;29562;40.390;-3.706;2023-04-29T09:53:26;11.15;;;3.10;;
43901;SDS011;29562;40.390;-3.706;2023-04-29T10:03:35;7.70;;;1.88;;
43901;SDS011;29562;40.390;-3.706;2023-04-29T10:13:37;3.08;;;2.17;;
43901;SDS011;29562;40.390;-3.706;2023-04-29T10:23:43;4.25;;;1.80;;
43901;SDS011;29562;40.390;-3.706;2023-04-29T10:33:46;3.28;;;1.30;;
43901;SDS011;29562;40.390;-3.706;2023-04-29T10:43:49;1.38;;;1.02;;
43901;SDS011;29562;40.390;-3.706;2023-04-29T11:04:02;7.47;;;1.50;;
43901;SDS011;29562;40.390;-3.706;2023-04-29T11:14:05;7.05;;;1.40;;
43901;SDS011;29562;40.390;-3.706;2023-04-29T11:24:09;5.85;;;1.40;;
43901;SDS011;29562;40.390;-3.706;2023-04-29T11:34:12;6.18;;;1.85;;
43901;SDS011;29562;40.390;-3.706;2023-04-29T11:44:15;4.00;;;1.70;;
43901;SDS011;29562;40.390;-3.706;2023-04-29T11:54:24;2.08;;;1.10;;
43901;SDS011;29562;40.390;-3.706;2023-04-29T12:04:26;4.30;;;1.58;;
43901;SDS011;29562;40.390;-3.706;2023-04-29T12:14:28;2.65;;;0.90;;
43901;SDS011;29562;40.390;-3.706;2023-04-29T12:24:36;1.67;;;1.20;;
43901;SDS011;29562;40.390;-3.706;2023-04-29T12:34:38;3.70;;;1.30;;
43901;SDS011;29562;40.390;-3.706;2023-04-29T12:44:40;1.70;;;0.80;;
43901;SDS011;29562;40.390;-3.706;2023-04-29T12:54:41;2.55;;;1.20;;
43901;SDS011;29562;40.390;-3.706;2023-04-29T13:04:43;3.92;;;1.20;;
43901;SDS011;29562;40.390;-3.706;2023-04-29T13:14:45;1.50;;;0.80;;
43901;SDS011;29562;40.390;-3.706;2023-04-29T13:24:47;1.50;;;0.80;;
43901;SDS011;29562;40.390;-3.706;2023-04-29T13:34:49;2.05;;;0.70;;
43901;SDS011;29562;40.390;-3.706;2023-04-29T13:44:51;3.72;;;0.98;;
43901;SDS011;29562;40.390;-3.706;2023-04-29T13:54:56;1.38;;;0.50;;
43901;SDS011;29562;40.390;-3.706;2023-04-29T14:04:58;2.78;;;0.73;;
43901;SDS011;29562;40.390;-3.706;2023-04-29T14:15:00;2.03;;;0.43;;
43901;SDS011;29562;40.390;-3.706;2023-04-29T14:25:02;1.20;;;0.52;;
43901;SDS011;29562;40.390;-3.706;2023-04-29T14:35:04;3.15;;;0.40;;
43901;SDS011;29562;40.390;-3.706;2023-04-29T14:45:06;1.73;;;0.40;;
43901;SDS011;29562;40.390;-3.706;2023-04-29T14:55:08;6.22;;;0.30;;
43901;SDS011;29562;40.390;-3.706;2023-04-29T15:05:10;2.60;;;0.20;;
43901;SDS011;29562;40.390;-3.706;2023-04-29T15:15:12;0.47;;;0.17;;
43901;SDS011;29562;40.390;-3.706;2023-04-29T15:25:14;3.30;;;0.30;;
43901;SDS011;29562;40.390;-3.706;2023-04-29T15:35:16;1.52;;;0.22;;
43901;SDS011;29562;40.390;-3.706;2023-04-29T15:45:17;1.50;;;0.40;;
43901;SDS011;29562;40.390;-3.706;2023-04-29T15:55:19;2.72;;;1.77;;
43901;SDS011;29562;40.390;-3.706;2023-04-29T16:05:21;1.08;;;0.30;;
43901;SDS011;29562;40.390;-3.706;2023-04-29T16:15:23;1.27;;;0.60;;
43901;SDS011;29562;40.390;-3.706;2023-04-29T16:25:25;1.38;;;0.52;;
43901;SDS011;29562;40.390;-3.706;2023-04-29T16:35:27;2.35;;;1.33;;
43901;SDS011;29562;40.390;-3.706;2023-04-29T16:45:30;3.63;;;1.42;;
43901;SDS011;29562;40.390;-3.706;2023-04-29T16:55:32;2.47;;;0.25;;
43901;SDS011;29562;40.390;-3.706;2023-04-29T17:05:34;1.33;;;0.50;;
43901;SDS011;29562;40.390;-3.706;2023-04-29T17:15:36;1.13;;;0.30;;
43901;SDS011;29562;40.390;-3.706;2023-04-29T17:25:37;0.75;;;0.40;;
43901;SDS011;29562;40.390;-3.706;2023-04-29T17:35:39;2.88;;;0.77;;
43901;SDS011;29562;40.390;-3.706;2023-04-29T17:45:41;4.13;;;1.85;;
43901;SDS011;29562;40.390;-3.706;2023-04-29T17:55:43;2.90;;;1.50;;
43901;SDS011;29562;40.390;-3.706;2023-04-29T18:05:45;3.25;;;2.10;;
43901;SDS011;29562;40.390;-3.706;2023-04-29T18:15:47;0.90;;;0.30;;
43901;SDS011;29562;40.390;-3.706;2023-04-29T18:25:49;1.13;;;0.35;;
43901;SDS011;29562;40.390;-3.706;2023-04-29T18:35:51;1.00;;;0.30;;
43901;SDS011;29562;40.390;-3.706;2023-04-29T18:45:54;1.45;;;0.20;;
43901;SDS011;29562;40.390;-3.706;2023-04-29T18:55:57;0.75;;;0.38;;
43901;SDS011;29562;40.390;-3.706;2023-04-29T19:05:58;2.65;;;0.35;;
43901;SDS011;29562;40.390;-3.706;2023-04-29T19:16:00;1.42;;;0.90;;
43901;SDS011;29562;40.390;-3.706;2023-04-29T19:26:02;1.63;;;0.50;;
43901;SDS011;29562;40.390;-3.706;2023-04-29T19:36:04;2.15;;;1.00;;
43901;SDS011;29562;40.390;-3.706;2023-04-29T19:46:07;1.30;;;0.50;;
43901;SDS011;29562;40.390;-3.706;2023-04-29T19:56:08;1.35;;;0.70;;
43901;SDS011;29562;40.390;-3.706;2023-04-29T20:06:10;1.70;;;0.93;;
43901;SDS011;29562;40.390;-3.706;2023-04-29T20:16:12;2.65;;;1.23;;
43901;SDS011;29562;40.390;-3.706;2023-04-29T20:26:14;2.33;;;1.10;;
43901;SDS011;29562;40.390;-3.706;2023-04-29T20:36:16;2.58;;;1.00;;
43901;SDS011;29562;40.390;-3.706;2023-04-29T20:46:18;1.95;;;0.90;;
43901;SDS011;29562;40.390;-3.706;2023-04-29T20:56:20;1.60;;;0.73;;
43901;SDS011;29562;40.390;-3.706;2023-04-29T21:06:26;2.22;;;1.05;;
43901;SDS011;29562;40.390;-3.706;2023-04-29T21:16:27;1.00;;;0.50;;
43901;SDS011;29562;40.390;-3.706;2023-04-29T21:26:29;1.17;;;0.60;;
43901;SDS011;29562;40.390;-3.706;2023-04-29T21:36:31;1.30;;;0.60;;
43901;SDS011;29562;40.390;-3.706;2023-04-29T21:46:33;1.15;;;0.80;;
43901;SDS011;29562;40.390;-3.706;2023-04-29T21:56:36;1.67;;;0.43;;
43901;SDS011;29562;40.390;-3.706;2023-04-29T22:06:38;0.77;;;0.45;;
43901;SDS011;29562;40.390;-3.706;2023-04-29T22:16:40;3.22;;;0.57;;
43901;SDS011;29562;40.390;-3.706;2023-04-29T22:26:42;1.92;;;0.70;;
43901;SDS011;29562;40.390;-3.706;2023-04-29T22:36:44;2.03;;;0.75;;
43901;SDS011;29562;40.390;-3.706;2023-04-29T22:46:45;0.52;;;0.40;;
43901;SDS011;29562;40.390;-3.706;2023-04-29T22:56:47;1.00;;;0.70;;
43901;SDS011;29562;40.390;-3.706;2023-04-29T23:06:49;3.85;;;1.38;;
43901;SDS011;29562;40.390;-3.706;2023-04-29T23:16:51;3.47;;;1.13;;
43901;SDS011;29562;40.390;-3.706;2023-04-29T23:26:53;3.28;;;1.20;;
43901;SDS011;29562;40.390;-3.706;2023-04-29T23:36:55;1.85;;;1.20;;
43901;SDS011;29562;40.390;-3.706;2023-04-29T23:46:57;5.15;;;0.98;;
43901;SDS011;29562;40.390;-3.706;2023-04-29T23:56:58;2.38;;;1.10;;
